createdAt,value
2023-02-22T00:00:14.392Z,96.69
2023-02-22T00:01:14.554Z,96.80
2023-02-22T00:02:14.406Z,97.52
2023-02-22T00:03:14.342Z,97.41
2023-02-22T00:04:14.260Z,97.20
2023-02-22T00:05:14.235Z,97.41
2023-02-22T00:06:14.189Z,97.20
2023-02-22T00:07:14.148Z,97.20
2023-02-22T00:08:14.186Z,97.10
2023-02-22T00:09:14.081Z,97.62
2023-02-22T00:10:14.056Z,97.62
2023-02-22T00:11:14.210Z,97.31
2023-02-22T00:12:13.987Z,97.20
2023-02-22T00:13:14.009Z,97.41
2023-02-22T00:14:13.938Z,97.72
2023-02-22T00:15:13.881Z,97.82
2023-02-22T00:16:13.907Z,97.72
2023-02-22T00:17:13.830Z,97.72
2023-02-22T00:18:13.783Z,97.62
2023-02-22T00:19:13.807Z,97.72
2023-02-22T00:20:13.712Z,97.62
2023-02-22T00:21:13.681Z,97.72
2023-02-22T00:22:13.677Z,97.92
2023-02-22T00:23:13.614Z,97.72
2023-02-22T00:24:13.578Z,97.62
2023-02-22T00:25:13.613Z,97.62
2023-02-22T00:26:14.148Z,97.47
2023-02-22T00:27:13.477Z,97.62
2023-02-22T00:28:13.452Z,97.62
2023-02-22T00:29:13.404Z,97.62
2023-02-22T00:30:14.078Z,97.62
2023-02-22T00:31:13.414Z,97.52
2023-02-22T00:32:13.400Z,97.62
2023-02-22T00:33:13.300Z,97.82
2023-02-22T00:34:13.234Z,97.41
2023-02-22T00:35:13.255Z,97.57
2023-02-22T00:36:13.231Z,97.62
2023-02-22T00:37:13.713Z,97.62
2023-02-22T00:38:13.132Z,97.72
2023-02-22T00:39:13.160Z,97.78
2023-02-22T00:40:13.587Z,97.72
2023-02-22T00:41:13.038Z,97.72
2023-02-22T00:42:13.068Z,97.62
2023-02-22T00:43:13.011Z,97.62
2023-02-22T00:44:13.555Z,97.52
2023-02-22T00:45:12.880Z,97.62
2023-02-22T00:46:12.840Z,97.62
2023-02-22T00:47:12.797Z,97.62
2023-02-22T00:48:12.774Z,97.87
2023-02-22T00:49:12.783Z,97.77
2023-02-22T00:50:12.694Z,97.87
2023-02-22T00:51:12.664Z,97.61
2023-02-22T00:52:12.637Z,97.81
2023-02-22T00:53:12.601Z,97.91
2023-02-22T00:54:12.565Z,97.96
2023-02-22T00:55:12.578Z,98.16
2023-02-22T00:56:12.504Z,98.32
2023-02-22T00:57:12.465Z,98.32
2023-02-22T00:58:12.425Z,98.36
2023-02-22T00:59:12.393Z,99.29
2023-02-22T01:00:12.418Z,99.90
2023-02-22T01:01:12.393Z,99.18
2023-02-22T01:02:12.303Z,99.54
2023-02-22T01:03:12.244Z,99.85
2023-02-22T01:04:12.217Z,99.95
2023-02-22T01:05:12.177Z,99.99
2023-02-22T01:06:12.207Z,99.99
2023-02-22T01:07:12.121Z,99.99
2023-02-22T01:08:12.081Z,99.99
2023-02-22T01:09:12.080Z,99.99
2023-02-22T01:10:12.017Z,99.99
2023-02-22T01:11:11.979Z,99.99
2023-02-22T01:12:12.038Z,99.99
2023-02-22T01:13:11.980Z,99.99
2023-02-22T01:14:11.875Z,99.99
2023-02-22T01:15:11.849Z,99.99
2023-02-22T01:16:11.861Z,99.99
2023-02-22T01:17:11.766Z,99.99
2023-02-22T01:18:11.810Z,99.99
2023-02-22T01:19:11.701Z,99.99
2023-02-22T01:20:11.658Z,99.99
2023-02-22T01:21:11.640Z,99.99
2023-02-22T01:22:11.603Z,99.99
2023-02-22T01:23:11.556Z,99.99
2023-02-22T01:24:11.602Z,99.99
2023-02-22T01:25:11.488Z,99.99
2023-02-22T01:26:11.451Z,99.99
2023-02-22T01:27:11.414Z,99.99
2023-02-22T01:28:11.386Z,99.99
2023-02-22T01:29:11.370Z,99.99
2023-02-22T01:30:11.389Z,99.99
2023-02-22T01:31:11.315Z,99.99
2023-02-22T01:32:11.376Z,99.99
2023-02-22T01:33:11.209Z,99.99
2023-02-22T01:34:11.176Z,99.99
2023-02-22T01:35:11.155Z,99.99
2023-02-22T01:36:11.112Z,99.99
2023-02-22T01:37:11.064Z,99.99
2023-02-22T01:38:11.092Z,99.99
2023-02-22T01:39:10.989Z,99.99
2023-02-22T01:40:10.951Z,99.99
2023-02-22T01:41:10.947Z,99.99
2023-02-22T01:42:10.892Z,99.99
2023-02-22T01:43:10.916Z,99.99
2023-02-22T01:44:10.809Z,99.99
2023-02-22T01:45:10.772Z,99.99
2023-02-22T01:46:10.804Z,99.99
2023-02-22T01:47:10.696Z,99.99
2023-02-22T01:48:10.664Z,99.99
2023-02-22T01:49:10.696Z,99.99
2023-02-22T01:50:10.589Z,99.99
2023-02-22T01:51:10.593Z,99.99
2023-02-22T01:52:11.173Z,99.99
2023-02-22T01:53:10.501Z,99.99
2023-02-22T01:54:10.529Z,99.99
2023-02-22T01:55:10.423Z,99.99
2023-02-22T01:56:10.384Z,99.99
2023-02-22T01:57:10.343Z,99.99
2023-02-22T01:58:10.320Z,99.99
2023-02-22T01:59:10.277Z,99.99
2023-02-22T02:00:10.306Z,99.99
2023-02-22T02:01:10.199Z,99.99
2023-02-22T02:02:10.162Z,99.99
2023-02-22T02:03:10.135Z,99.99
2023-02-22T02:04:10.132Z,99.99
2023-02-22T02:05:10.100Z,99.99
2023-02-22T02:06:10.075Z,99.99
2023-02-22T02:07:09.998Z,99.99
2023-02-22T02:08:09.957Z,99.99
2023-02-22T02:09:09.916Z,99.99
2023-02-22T02:10:09.875Z,99.99
2023-02-22T02:11:09.905Z,99.99
2023-02-22T02:12:09.807Z,99.99
2023-02-22T02:13:09.787Z,99.99
2023-02-22T02:14:09.736Z,99.99
2023-02-22T02:15:09.703Z,99.99
2023-02-22T02:16:09.694Z,99.99
2023-02-22T02:17:09.699Z,99.99
2023-02-22T02:18:09.593Z,99.99
2023-02-22T02:19:09.554Z,99.99
2023-02-22T02:20:09.523Z,99.99
2023-02-22T02:21:09.489Z,99.99
2023-02-22T02:22:09.457Z,99.99
2023-02-22T02:23:09.483Z,99.99
2023-02-22T02:24:09.384Z,99.99
2023-02-22T02:25:09.351Z,99.99
2023-02-22T02:26:09.316Z,99.99
2023-02-22T02:27:09.284Z,99.99
2023-02-22T02:28:09.250Z,99.99
2023-02-22T02:29:09.260Z,99.99
2023-02-22T02:30:09.234Z,99.99
2023-02-22T02:31:09.134Z,99.99
2023-02-22T02:32:09.192Z,99.99
2023-02-22T02:33:09.069Z,99.99
2023-02-22T02:34:09.036Z,99.99
2023-02-22T02:35:09.082Z,99.99
2023-02-22T02:36:08.972Z,99.99
2023-02-22T02:37:08.923Z,99.99
2023-02-22T02:38:08.882Z,99.99
2023-02-22T02:39:08.871Z,99.99
2023-02-22T02:40:08.835Z,99.99
2023-02-22T02:41:08.852Z,99.99
2023-02-22T02:42:08.753Z,99.99
2023-02-22T02:43:08.707Z,99.99
2023-02-22T02:44:08.695Z,99.99
2023-02-22T02:45:08.669Z,99.99
2023-02-22T02:46:08.606Z,99.99
2023-02-22T02:47:08.708Z,99.99
2023-02-22T02:48:08.534Z,99.99
2023-02-22T02:49:08.508Z,99.99
2023-02-22T02:50:08.461Z,99.99
2023-02-22T02:51:08.435Z,99.99
2023-02-22T02:52:08.411Z,99.99
2023-02-22T02:53:08.429Z,99.99
2023-02-22T02:54:08.326Z,99.99
2023-02-22T02:55:08.295Z,99.99
2023-02-22T02:56:08.248Z,99.99
2023-02-22T02:57:08.221Z,99.99
2023-02-22T02:58:08.176Z,99.99
2023-02-22T02:59:08.208Z,99.99
2023-02-22T03:00:08.119Z,99.99
2023-02-22T03:01:08.078Z,99.99
2023-02-22T03:02:08.051Z,99.99
2023-02-22T03:03:08.010Z,99.99
2023-02-22T03:04:07.982Z,99.99
2023-02-22T03:05:07.984Z,99.99
2023-02-22T03:06:07.913Z,99.99
2023-02-22T03:07:07.920Z,99.99
2023-02-22T03:08:07.857Z,99.99
2023-02-22T03:09:07.797Z,99.99
2023-02-22T03:10:07.831Z,99.99
2023-02-22T03:11:07.720Z,99.99
2023-02-22T03:12:07.724Z,99.99
2023-02-22T03:13:07.662Z,99.99
2023-02-22T03:14:07.628Z,99.99
2023-02-22T03:15:07.578Z,99.99
2023-02-22T03:16:07.621Z,99.99
2023-02-22T03:17:07.523Z,99.99
2023-02-22T03:18:07.478Z,99.99
2023-02-22T03:19:07.443Z,99.99
2023-02-22T03:20:07.437Z,99.99
2023-02-22T03:21:07.377Z,99.99
2023-02-22T03:22:07.407Z,99.99
2023-02-22T03:23:07.311Z,99.99
2023-02-22T03:24:07.289Z,99.99
2023-02-22T03:25:07.266Z,99.99
2023-02-22T03:26:07.204Z,99.99
2023-02-22T03:27:07.159Z,99.99
2023-02-22T03:28:07.200Z,99.99
2023-02-22T03:29:07.094Z,99.99
2023-02-22T03:30:07.103Z,99.99
2023-02-22T03:31:07.059Z,99.99
2023-02-22T03:32:07.022Z,99.99
2023-02-22T03:33:06.956Z,99.99
2023-02-22T03:34:06.983Z,99.99
2023-02-22T03:35:06.882Z,99.99
2023-02-22T03:36:06.848Z,99.99
2023-02-22T03:37:06.828Z,99.99
2023-02-22T03:38:06.783Z,99.99
2023-02-22T03:39:06.753Z,99.99
2023-02-22T03:40:06.770Z,99.99
2023-02-22T03:41:06.679Z,99.99
2023-02-22T03:42:06.677Z,99.99
2023-02-22T03:43:06.621Z,99.99
2023-02-22T03:44:06.621Z,99.99
2023-02-22T03:45:06.586Z,99.99
2023-02-22T03:46:06.527Z,99.99
2023-02-22T03:47:06.464Z,99.99
2023-02-22T03:48:06.436Z,99.99
2023-02-22T03:49:06.398Z,99.99
2023-02-22T03:50:06.370Z,99.99
2023-02-22T03:51:06.384Z,99.99
2023-02-22T03:52:06.295Z,99.99
2023-02-22T03:53:06.272Z,99.99
2023-02-22T03:54:06.239Z,99.99
2023-02-22T03:55:06.189Z,99.99
2023-02-22T03:56:06.217Z,99.99
2023-02-22T03:57:06.112Z,99.99
2023-02-22T03:58:06.087Z,99.99
2023-02-22T03:59:06.056Z,99.99
2023-02-22T04:00:06.040Z,99.99
2023-02-22T04:01:06.045Z,99.99
2023-02-22T04:02:06.288Z,99.99
2023-02-22T04:03:06.769Z,99.99
2023-02-22T04:04:05.872Z,99.99
2023-02-22T04:05:05.860Z,99.99
2023-02-22T04:06:05.817Z,99.99
2023-02-22T04:07:05.773Z,99.99
2023-02-22T04:08:05.793Z,99.99
2023-02-22T04:09:05.702Z,99.99
2023-02-22T04:10:05.674Z,99.99
2023-02-22T04:11:05.637Z,99.99
2023-02-22T04:12:05.610Z,99.99
2023-02-22T04:13:05.570Z,99.99
2023-02-22T04:14:05.586Z,99.99
2023-02-22T04:15:05.489Z,99.99
2023-02-22T04:16:05.514Z,99.99
2023-02-22T04:17:05.471Z,99.99
2023-02-22T04:18:05.401Z,99.99
2023-02-22T04:19:05.363Z,99.99
2023-02-22T04:20:05.389Z,99.99
2023-02-22T04:21:05.280Z,99.99
2023-02-22T04:22:05.295Z,99.99
2023-02-22T04:23:05.216Z,99.99
2023-02-22T04:24:05.205Z,99.99
2023-02-22T04:25:05.260Z,99.99
2023-02-22T04:26:08.089Z,99.99
2023-02-22T04:27:05.100Z,99.99
2023-02-22T04:28:05.052Z,99.99
2023-02-22T04:29:05.027Z,99.99
2023-02-22T04:30:04.977Z,99.99
2023-02-22T04:31:04.970Z,99.99
2023-02-22T04:32:04.981Z,99.99
2023-02-22T04:33:04.875Z,99.99
2023-02-22T04:34:04.868Z,99.99
2023-02-22T04:35:04.805Z,99.99
2023-02-22T04:36:04.767Z,99.99
2023-02-22T04:37:04.784Z,99.99
2023-02-22T04:38:04.715Z,99.99
2023-02-22T04:39:04.661Z,99.99
2023-02-22T04:40:04.692Z,99.99
2023-02-22T04:41:04.585Z,99.99
2023-02-22T04:42:04.612Z,99.99
2023-02-22T04:43:04.529Z,99.99
2023-02-22T04:44:04.487Z,99.99
2023-02-22T04:45:04.458Z,99.99
2023-02-22T04:46:04.517Z,99.99
2023-02-22T04:47:04.465Z,99.99
2023-02-22T04:48:04.349Z,99.99
2023-02-22T04:49:04.304Z,99.99
2023-02-22T04:50:04.270Z,99.99
2023-02-22T04:51:04.245Z,99.99
2023-02-22T04:52:04.200Z,99.99
2023-02-22T04:53:04.262Z,99.99
2023-02-22T04:54:04.128Z,99.99
2023-02-22T04:55:04.107Z,99.99
2023-02-22T04:56:04.073Z,99.99
2023-02-22T04:57:04.027Z,99.99
2023-02-22T04:58:04.012Z,99.99
2023-02-22T04:59:04.030Z,99.99
2023-02-22T05:00:03.925Z,99.99
2023-02-22T05:01:03.903Z,99.99
2023-02-22T05:02:03.858Z,99.99
2023-02-22T05:03:03.834Z,99.99
2023-02-22T05:04:03.859Z,99.99
2023-02-22T05:05:03.795Z,99.99
2023-02-22T05:06:03.722Z,99.99
2023-02-22T05:07:03.684Z,99.99
2023-02-22T05:08:03.654Z,99.99
2023-02-22T05:09:03.615Z,99.99
2023-02-22T05:10:03.630Z,99.99
2023-02-22T05:11:03.556Z,99.99
2023-02-22T05:12:03.521Z,99.99
2023-02-22T05:13:04.250Z,99.99
2023-02-22T05:14:03.436Z,99.99
2023-02-22T05:15:03.479Z,99.99
2023-02-22T05:16:03.386Z,99.99
2023-02-22T05:17:03.342Z,99.99
2023-02-22T05:18:03.298Z,99.99
2023-02-22T05:19:03.301Z,99.99
2023-02-22T05:20:03.227Z,99.99
2023-02-22T05:21:03.251Z,99.99
2023-02-22T05:22:03.169Z,99.99
2023-02-22T05:23:03.138Z,99.99
2023-02-22T05:24:03.094Z,99.99
2023-02-22T05:25:03.070Z,99.99
2023-02-22T05:26:03.084Z,99.99
2023-02-22T05:27:02.989Z,99.99
2023-02-22T05:28:02.957Z,99.99
2023-02-22T05:29:02.933Z,99.99
2023-02-22T05:30:02.879Z,99.99
2023-02-22T05:31:02.976Z,99.99
2023-02-22T05:32:02.954Z,99.99
2023-02-22T05:33:02.797Z,99.99
2023-02-22T05:34:02.751Z,99.99
2023-02-22T05:35:02.742Z,99.99
2023-02-22T05:36:02.689Z,99.99
2023-02-22T05:37:02.699Z,99.99
2023-02-22T05:38:02.605Z,99.99
2023-02-22T05:39:02.577Z,99.99
2023-02-22T05:40:02.543Z,99.99
2023-02-22T05:41:02.505Z,99.99
2023-02-22T05:42:02.465Z,99.99
2023-02-22T05:43:02.492Z,99.99
2023-02-22T05:44:02.399Z,99.99
2023-02-22T05:45:02.369Z,99.99
2023-02-22T05:46:02.336Z,99.99
2023-02-22T05:47:02.304Z,99.99
2023-02-22T05:48:02.328Z,99.99
2023-02-22T05:49:02.233Z,99.99
2023-02-22T05:50:02.195Z,99.99
2023-02-22T05:51:02.165Z,99.99
2023-02-22T05:52:02.127Z,99.99
2023-02-22T05:53:02.099Z,99.99
2023-02-22T05:54:02.106Z,99.99
2023-02-22T05:55:02.017Z,99.99
2023-02-22T05:56:01.988Z,99.99
2023-02-22T05:57:01.976Z,99.99
2023-02-22T05:58:01.924Z,99.99
2023-02-22T05:59:01.939Z,99.99
2023-02-22T06:00:01.846Z,99.99
2023-02-22T06:01:03.343Z,99.99
2023-02-22T06:02:01.813Z,99.99
2023-02-22T06:03:01.733Z,99.99
2023-02-22T06:04:01.750Z,99.99
2023-02-22T06:05:01.672Z,99.99
2023-02-22T06:06:01.642Z,99.99
2023-02-22T06:07:01.595Z,99.99
2023-02-22T06:08:01.570Z,99.99
2023-02-22T06:09:01.543Z,99.99
2023-02-22T06:10:01.643Z,99.99
2023-02-22T06:11:01.466Z,99.99
2023-02-22T06:12:01.429Z,99.99
2023-02-22T06:13:01.395Z,99.99
2023-02-22T06:14:01.367Z,99.99
2023-02-22T06:15:01.324Z,99.99
2023-02-22T06:16:01.375Z,99.99
2023-02-22T06:17:01.257Z,99.99
2023-02-22T06:18:01.223Z,99.99
2023-02-22T06:19:01.188Z,99.99
2023-02-22T06:20:01.149Z,99.99
2023-02-22T06:21:01.113Z,99.99
2023-02-22T06:22:01.992Z,99.99
2023-02-22T06:23:01.056Z,99.99
2023-02-22T06:24:01.019Z,99.99
2023-02-22T06:25:00.983Z,99.99
2023-02-22T06:26:00.954Z,99.99
2023-02-22T06:27:00.911Z,99.99
2023-02-22T06:28:00.956Z,99.99
2023-02-22T06:29:00.853Z,99.99
2023-02-22T06:30:00.803Z,99.99
2023-02-22T06:31:00.779Z,99.99
2023-02-22T06:32:00.800Z,99.99
2023-02-22T06:33:00.705Z,99.99
2023-02-22T06:34:00.731Z,99.99
2023-02-22T06:35:00.703Z,99.99
2023-02-22T06:36:00.603Z,99.99
2023-02-22T06:37:00.589Z,99.99
2023-02-22T06:38:00.532Z,99.99
2023-02-22T06:39:00.498Z,99.99
2023-02-22T06:40:04.904Z,99.99
2023-02-22T06:41:00.435Z,99.99
2023-02-22T06:42:00.411Z,99.99
2023-02-22T06:43:00.375Z,99.99
2023-02-22T06:44:00.321Z,99.99
2023-02-22T06:45:00.345Z,99.99
2023-02-22T06:46:09.750Z,99.99
2023-02-22T06:47:00.223Z,99.99
2023-02-22T06:48:00.199Z,99.99
2023-02-22T06:49:00.213Z,99.99
2023-02-22T06:50:08.776Z,99.99
2023-02-22T06:51:00.094Z,99.93
2023-02-22T06:52:00.046Z,99.82
2023-02-22T06:53:00.032Z,99.51
2023-02-22T06:54:09.280Z,99.72
2023-02-22T06:55:09.309Z,99.31
2023-02-22T06:56:08.857Z,99.72
2023-02-22T06:57:09.357Z,99.51
2023-02-22T06:58:08.885Z,99.21
2023-02-22T06:59:08.913Z,99.31
2023-02-22T07:00:08.932Z,99.10
2023-02-22T07:01:09.009Z,99.10
2023-02-22T07:02:08.502Z,99.05
2023-02-22T07:03:09.096Z,99.31
2023-02-22T07:04:09.029Z,99.05
2023-02-22T07:05:09.052Z,98.96
2023-02-22T07:06:09.067Z,98.54
2023-02-22T07:06:59.537Z,98.24
2023-02-22T07:08:08.177Z,97.72
2023-02-22T07:08:59.465Z,97.31
2023-02-22T07:09:59.431Z,97.62
2023-02-22T07:10:59.393Z,97.72
2023-02-22T07:11:59.360Z,97.62
2023-02-22T07:12:59.321Z,97.57
2023-02-22T07:13:59.340Z,97.67
2023-02-22T07:14:59.271Z,97.72
2023-02-22T07:15:59.260Z,97.37
2023-02-22T07:16:59.186Z,97.57
2023-02-22T07:17:59.142Z,97.57
2023-02-22T07:18:59.114Z,97.57
2023-02-22T07:19:59.137Z,96.85
2023-02-22T07:20:59.059Z,97.57
2023-02-22T07:21:59.018Z,96.03
2023-02-22T07:22:58.970Z,96.23
2023-02-22T07:23:58.950Z,96.65
2023-02-22T07:24:58.918Z,96.65
2023-02-22T07:25:58.940Z,96.50
2023-02-22T07:26:58.852Z,96.85
2023-02-22T07:27:58.804Z,96.85
2023-02-22T07:28:58.764Z,96.70
2023-02-22T07:29:58.743Z,96.30
2023-02-22T07:30:58.747Z,96.60
2023-02-22T07:31:58.693Z,96.50
2023-02-22T07:32:58.659Z,96.70
2023-02-22T07:33:58.610Z,96.40
2023-02-22T07:34:58.567Z,96.60
2023-02-22T07:35:58.592Z,95.78
2023-02-22T07:36:58.494Z,95.68
2023-02-22T07:37:58.471Z,95.98
2023-02-22T07:38:58.447Z,95.17
2023-02-22T07:39:58.410Z,95.78
2023-02-22T07:40:58.371Z,95.68
2023-02-22T07:41:58.696Z,95.68
2023-02-22T07:42:58.305Z,95.89
2023-02-22T07:43:58.267Z,95.43
2023-02-22T07:44:58.237Z,95.53
2023-02-22T07:45:58.258Z,95.64
2023-02-22T07:46:58.165Z,95.02
2023-02-22T07:47:58.177Z,94.81
2023-02-22T07:48:58.092Z,95.12
2023-02-22T07:49:58.056Z,95.53
2023-02-22T07:50:58.023Z,94.56
2023-02-22T07:51:57.990Z,94.26
2023-02-22T07:52:57.959Z,93.64
2023-02-22T07:53:57.988Z,94.05
2023-02-22T07:54:57.901Z,94.05
2023-02-22T07:55:57.861Z,94.05
2023-02-22T07:56:57.832Z,94.05
2023-02-22T07:57:57.793Z,93.95
2023-02-22T07:58:57.770Z,93.64
2023-02-22T07:59:57.780Z,94.10
2023-02-22T08:00:57.696Z,93.95
2023-02-22T08:01:57.653Z,94.05
2023-02-22T08:02:57.627Z,93.85
2023-02-22T08:03:57.652Z,94.26
2023-02-22T08:04:57.555Z,93.49
2023-02-22T08:05:57.578Z,93.60
2023-02-22T08:06:57.485Z,93.08
2023-02-22T08:07:57.462Z,92.88
2023-02-22T08:08:57.430Z,92.78
2023-02-22T08:09:57.401Z,92.83
2023-02-22T08:10:57.362Z,92.98
2023-02-22T08:11:57.401Z,92.88
2023-02-22T08:12:57.293Z,92.32
2023-02-22T08:13:57.264Z,92.53
2023-02-22T08:14:57.236Z,92.12
2023-02-22T08:15:57.186Z,91.71
2023-02-22T08:16:57.189Z,92.22
2023-02-22T08:17:57.171Z,91.56
2023-02-22T08:18:57.087Z,92.22
2023-02-22T08:19:57.053Z,91.61
2023-02-22T08:20:57.025Z,91.67
2023-02-22T08:21:56.999Z,91.82
2023-02-22T08:22:56.949Z,92.12
2023-02-22T08:23:57.004Z,92.59
2023-02-22T08:24:56.940Z,91.87
2023-02-22T08:25:56.852Z,91.61
2023-02-22T08:26:56.824Z,91.91
2023-02-22T08:27:56.801Z,92.28
2023-02-22T08:28:56.758Z,91.77
2023-02-22T08:29:56.767Z,91.67
2023-02-22T08:30:56.692Z,91.56
2023-02-22T08:31:56.768Z,91.36
2023-02-22T08:32:56.704Z,91.87
2023-02-22T08:33:56.603Z,91.56
2023-02-22T08:34:56.641Z,91.77
2023-02-22T08:35:56.541Z,91.87
2023-02-22T08:36:56.492Z,91.26
2023-02-22T08:37:56.461Z,91.77
2023-02-22T08:38:56.432Z,91.56
2023-02-22T08:39:56.393Z,91.36
2023-02-22T08:40:56.443Z,91.36
2023-02-22T08:41:56.334Z,91.77
2023-02-22T08:42:56.305Z,92.02
2023-02-22T08:43:56.270Z,91.71
2023-02-22T08:44:56.233Z,91.82
2023-02-22T08:45:57.624Z,91.91
2023-02-22T08:46:56.226Z,91.91
2023-02-22T08:47:56.133Z,92.22
2023-02-22T08:48:56.093Z,91.46
2023-02-22T08:49:56.069Z,91.36
2023-02-22T08:50:56.039Z,91.46
2023-02-22T08:51:55.994Z,91.26
2023-02-22T08:52:56.028Z,92.08
2023-02-22T08:53:55.933Z,91.83
2023-02-22T08:54:55.900Z,91.31
2023-02-22T08:55:55.865Z,91.22
2023-02-22T08:56:55.839Z,91.11
2023-02-22T08:57:55.810Z,91.11
2023-02-22T08:58:55.824Z,90.50
2023-02-22T08:59:55.740Z,90.50
2023-02-22T09:00:55.710Z,90.50
2023-02-22T09:01:55.742Z,90.44
2023-02-22T09:02:55.631Z,90.44
2023-02-22T09:03:55.608Z,90.75
2023-02-22T09:04:55.632Z,90.60
2023-02-22T09:05:55.586Z,90.44
2023-02-22T09:06:55.506Z,90.39
2023-02-22T09:07:55.471Z,90.50
2023-02-22T09:08:55.456Z,90.09
2023-02-22T09:09:55.436Z,90.19
2023-02-22T09:10:55.425Z,89.78
2023-02-22T09:11:55.349Z,89.94
2023-02-22T09:12:55.306Z,90.05
2023-02-22T09:13:55.265Z,90.05
2023-02-22T09:14:55.236Z,90.05
2023-02-22T09:15:55.223Z,90.00
2023-02-22T09:16:55.225Z,89.80
2023-02-22T09:17:55.145Z,89.09
2023-02-22T09:18:55.098Z,88.88
2023-02-22T09:19:55.084Z,89.15
2023-02-22T09:20:55.050Z,88.33
2023-02-22T09:21:55.047Z,88.02
2023-02-22T09:22:55.038Z,88.33
2023-02-22T09:23:54.944Z,88.43
2023-02-22T09:24:55.807Z,89.04
2023-02-22T09:25:54.882Z,88.23
2023-02-22T09:26:54.849Z,88.02
2023-02-22T09:27:54.811Z,87.61
2023-02-22T09:28:54.844Z,87.77
2023-02-22T09:29:54.743Z,87.26
2023-02-22T09:30:54.730Z,87.26
2023-02-22T09:31:54.914Z,86.55
2023-02-22T09:32:54.776Z,86.35
2023-02-22T09:33:54.625Z,86.44
2023-02-22T09:34:54.654Z,86.44
2023-02-22T09:35:54.562Z,86.90
2023-02-22T09:36:54.522Z,87.00
2023-02-22T09:37:54.493Z,87.24
2023-02-22T09:38:54.474Z,87.30
2023-02-22T09:39:54.464Z,87.41
2023-02-22T09:40:54.483Z,87.20
2023-02-22T09:41:54.357Z,87.35
2023-02-22T09:42:54.328Z,87.35
2023-02-22T09:43:54.304Z,87.51
2023-02-22T09:44:54.263Z,87.20
2023-02-22T09:45:54.294Z,87.30
2023-02-22T09:46:54.252Z,87.41
2023-02-22T09:47:56.396Z,87.10
2023-02-22T09:48:54.138Z,87.00
2023-02-22T09:49:54.104Z,87.00
2023-02-22T09:50:54.071Z,87.37
2023-02-22T09:51:54.049Z,87.26
2023-02-22T09:52:54.071Z,86.55
2023-02-22T09:53:53.976Z,86.35
2023-02-22T09:54:53.951Z,86.35
2023-02-22T09:55:53.910Z,86.44
2023-02-22T09:56:53.886Z,86.14
2023-02-22T09:57:53.861Z,86.04
2023-02-22T09:58:53.867Z,86.55
2023-02-22T09:59:53.782Z,85.53
2023-02-22T10:00:53.798Z,85.32
2023-02-22T10:01:53.734Z,86.20
2023-02-22T10:02:53.699Z,86.30
2023-02-22T10:03:53.743Z,86.20
2023-02-22T10:04:53.678Z,85.89
2023-02-22T10:05:53.589Z,85.75
2023-02-22T10:06:53.564Z,85.14
2023-02-22T10:07:53.530Z,84.42
2023-02-22T10:08:53.496Z,84.12
2023-02-22T10:09:53.465Z,84.16
2023-02-22T10:10:53.503Z,84.36
2023-02-22T10:11:53.415Z,84.16
2023-02-22T10:12:53.371Z,84.16
2023-02-22T10:13:53.342Z,83.75
2023-02-22T10:14:53.302Z,84.88
2023-02-22T10:15:53.270Z,84.81
2023-02-22T10:16:53.467Z,84.61
2023-02-22T10:17:53.216Z,84.91
2023-02-22T10:18:53.182Z,84.91
2023-02-22T10:19:54.752Z,85.02
2023-02-22T10:20:53.121Z,85.02
2023-02-22T10:21:53.091Z,84.81
2023-02-22T10:22:53.114Z,84.26
2023-02-22T10:23:53.026Z,84.77
2023-02-22T10:24:52.992Z,84.63
2023-02-22T10:25:52.964Z,84.22
2023-02-22T10:26:52.927Z,84.53
2023-02-22T10:27:52.900Z,84.22
2023-02-22T10:28:52.910Z,84.12
2023-02-22T10:29:52.839Z,84.22
2023-02-22T10:30:52.842Z,83.92
2023-02-22T10:31:52.846Z,84.22
2023-02-22T10:32:52.737Z,84.39
2023-02-22T10:33:52.718Z,83.92
2023-02-22T10:34:52.734Z,83.81
2023-02-22T10:35:52.654Z,83.81
2023-02-22T10:36:52.610Z,84.12
2023-02-22T10:37:52.577Z,84.33
2023-02-22T10:38:52.541Z,84.22
2023-02-22T10:39:52.543Z,84.42
2023-02-22T10:40:52.542Z,84.01
2023-02-22T10:41:52.454Z,84.39
2023-02-22T10:42:52.425Z,83.67
2023-02-22T10:43:52.404Z,82.96
2023-02-22T10:44:52.356Z,83.06
2023-02-22T10:45:52.369Z,82.86
2023-02-22T10:46:52.333Z,83.00
2023-02-22T10:47:52.279Z,84.36
2023-02-22T10:48:52.228Z,84.16
2023-02-22T10:49:52.201Z,84.16
2023-02-22T10:50:52.176Z,84.47
2023-02-22T10:51:52.178Z,84.06
2023-02-22T10:52:52.149Z,84.16
2023-02-22T10:53:52.065Z,84.33
2023-02-22T10:54:52.059Z,84.22
2023-02-22T10:55:52.028Z,84.01
2023-02-22T10:56:52.002Z,84.33
2023-02-22T10:57:51.964Z,84.06
2023-02-22T10:58:52.009Z,84.26
2023-02-22T10:59:51.919Z,84.12
2023-02-22T11:00:51.858Z,84.12
2023-02-22T11:01:51.820Z,84.22
2023-02-22T11:02:51.780Z,84.28
2023-02-22T11:03:51.749Z,84.18
2023-02-22T11:04:51.869Z,84.33
2023-02-22T11:05:51.694Z,83.61
2023-02-22T11:06:51.653Z,84.01
2023-02-22T11:07:51.624Z,84.12
2023-02-22T11:08:51.620Z,83.95
2023-02-22T11:09:51.621Z,84.74
2023-02-22T11:10:51.533Z,84.49
2023-02-22T11:11:51.494Z,84.08
2023-02-22T11:12:51.458Z,83.67
2023-02-22T11:13:51.432Z,83.67
2023-02-22T11:14:51.414Z,84.08
2023-02-22T11:15:51.443Z,83.26
2023-02-22T11:16:51.395Z,84.39
2023-02-22T11:17:51.302Z,84.33
2023-02-22T11:18:51.279Z,84.08
2023-02-22T11:19:51.242Z,84.08
2023-02-22T11:20:51.219Z,84.28
2023-02-22T11:21:51.238Z,84.28
2023-02-22T11:22:51.144Z,84.22
2023-02-22T11:23:51.117Z,84.08
2023-02-22T11:24:51.098Z,84.42
2023-02-22T11:25:51.058Z,84.42
2023-02-22T11:26:51.014Z,84.57
2023-02-22T11:27:51.043Z,84.88
2023-02-22T11:28:50.977Z,85.28
2023-02-22T11:29:50.934Z,85.38
2023-02-22T11:30:50.977Z,85.69
2023-02-22T11:31:50.978Z,85.75
2023-02-22T11:32:50.829Z,85.00
2023-02-22T11:33:50.861Z,84.74
2023-02-22T11:34:54.827Z,83.98
2023-02-22T11:35:50.754Z,84.69
2023-02-22T11:36:50.705Z,84.83
2023-02-22T11:37:50.667Z,84.69
2023-02-22T11:38:50.636Z,84.08
2023-02-22T11:39:50.655Z,84.04
2023-02-22T11:40:50.573Z,83.84
2023-02-22T11:41:50.541Z,82.78
2023-02-22T11:42:50.508Z,82.98
2023-02-22T11:43:50.470Z,82.37
2023-02-22T11:44:50.441Z,82.88
2023-02-22T11:45:59.008Z,82.71
2023-02-22T11:46:50.401Z,82.71
2023-02-22T11:47:50.345Z,83.12
2023-02-22T11:48:50.317Z,83.12
2023-02-22T11:49:50.303Z,83.02
2023-02-22T11:50:50.258Z,82.92
2023-02-22T11:51:50.298Z,84.08
2023-02-22T11:52:50.185Z,83.63
2023-02-22T11:53:50.153Z,83.23
2023-02-22T11:54:50.121Z,83.49
2023-02-22T11:55:50.089Z,82.27
2023-02-22T11:56:50.144Z,82.47
2023-02-22T11:57:50.087Z,82.33
2023-02-22T11:58:50.006Z,81.66
2023-02-22T11:59:49.967Z,82.07
2023-02-22T12:00:49.933Z,82.57
2023-02-22T12:01:49.906Z,82.17
2023-02-22T12:02:56.962Z,82.37
2023-02-22T12:03:50.079Z,82.47
2023-02-22T12:04:49.877Z,82.47
2023-02-22T12:05:49.775Z,82.78
2023-02-22T12:06:49.745Z,82.37
2023-02-22T12:07:49.731Z,82.33
2023-02-22T12:08:49.776Z,82.23
2023-02-22T12:09:49.708Z,82.13
2023-02-22T12:10:49.638Z,81.66
2023-02-22T12:11:49.624Z,81.31
2023-02-22T12:12:49.589Z,81.15
2023-02-22T12:13:49.531Z,81.21
2023-02-22T12:14:49.545Z,81.38
2023-02-22T12:15:49.516Z,80.56
2023-02-22T12:16:49.431Z,80.56
2023-02-22T12:17:59.369Z,80.11
2023-02-22T12:18:49.386Z,78.73
2023-02-22T12:19:49.343Z,79.79
2023-02-22T12:20:49.365Z,80.19
2023-02-22T12:21:49.290Z,80.26
2023-02-22T12:22:49.246Z,80.26
2023-02-22T12:23:49.215Z,80.16
2023-02-22T12:24:51.595Z,79.81
2023-02-22T12:25:49.172Z,79.24
2023-02-22T12:26:49.186Z,79.34
2023-02-22T12:27:49.089Z,80.09
2023-02-22T12:28:49.121Z,80.09
2023-02-22T12:29:49.087Z,80.05
2023-02-22T12:30:49.063Z,80.26
2023-02-22T12:31:49.057Z,79.30
2023-02-22T12:32:48.977Z,79.00
2023-02-22T12:33:48.947Z,78.53
2023-02-22T12:34:48.947Z,79.34
2023-02-22T12:35:48.844Z,79.03
2023-02-22T12:36:48.822Z,80.09
2023-02-22T12:37:48.788Z,79.79
2023-02-22T12:38:48.869Z,79.68
2023-02-22T12:39:53.554Z,80.23
2023-02-22T12:40:48.703Z,80.98
2023-02-22T12:41:48.673Z,81.39
2023-02-22T12:42:48.638Z,81.29
2023-02-22T12:43:48.598Z,81.39
2023-02-22T12:44:48.583Z,81.09
2023-02-22T12:45:48.617Z,80.98
2023-02-22T12:46:48.515Z,81.70
2023-02-22T12:47:48.479Z,81.56
2023-02-22T12:48:48.462Z,81.39
2023-02-22T12:49:48.427Z,81.39
2023-02-22T12:50:48.388Z,81.15
2023-02-22T12:51:48.417Z,81.04